sensor_id;sensor_type;location;lat;lon;timestamp;pressure;altitude;pressure_sealevel;temperature;humidity
32735;BME280;19112;51.076;3.706;2023-03-23T00:02:14;99992.22;;;14.60;71.46
32735;BME280;19112;51.076;3.706;2023-03-23T00:04:41;100120.09;;;15.08;71.60
32735;BME280;19112;51.076;3.706;2023-03-23T00:07:08;99630.75;;;12.33;71.45
32735;BME280;19112;51.076;3.706;2023-03-23T00:09:34;99978.84;;;14.31;72.03
32735;BME280;19112;51.076;3.706;2023-03-23T00:12:07;100118.28;;;15.06;71.87
32735;BME280;19112;51.076;3.706;2023-03-23T00:14:33;100021.25;;;14.56;72.05
32735;BME280;19112;51.076;3.706;2023-03-23T00:17:08;100076.81;;;14.79;72.25
32735;BME280;19112;51.076;3.706;2023-03-23T00:19:40;100113.84;;;14.94;72.77
32735;BME280;19112;51.076;3.706;2023-03-23T00:22:14;99937.38;;;13.98;72.49
32735;BME280;19112;51.076;3.706;2023-03-23T00:24:41;100112.06;;;14.87;73.02
32735;BME280;19112;51.076;3.706;2023-03-23T00:27:07;99942.53;;;13.78;73.10
32735;BME280;19112;51.076;3.706;2023-03-23T00:29:34;99942.50;;;13.71;73.15
32735;BME280;19112;51.076;3.706;2023-03-23T00:32:00;100062.59;;;14.49;73.00
32735;BME280;19112;51.076;3.706;2023-03-23T00:34:27;99993.81;;;14.23;72.94
32735;BME280;19112;51.076;3.706;2023-03-23T00:36:57;100069.66;;;14.58;72.82
32735;BME280;19112;51.076;3.706;2023-03-23T00:39:25;99901.94;;;13.52;72.92
32735;BME280;19112;51.076;3.706;2023-03-23T00:41:52;100066.94;;;14.46;73.31
32735;BME280;19112;51.076;3.706;2023-03-23T00:44:18;99698.31;;;12.36;73.15
32735;BME280;19112;51.076;3.706;2023-03-23T00:46:48;99716.91;;;12.60;73.07
32735;BME280;19112;51.076;3.706;2023-03-23T00:49:18;100032.56;;;14.33;73.09
32735;BME280;19112;51.076;3.706;2023-03-23T00:51:44;99856.13;;;13.27;73.02
32735;BME280;19112;51.076;3.706;2023-03-23T00:54:11;100046.69;;;14.46;73.22
32735;BME280;19112;51.076;3.706;2023-03-23T00:56:38;100090.84;;;14.65;73.00
32735;BME280;19112;51.076;3.706;2023-03-23T00:59:07;100101.50;;;14.90;72.68
32735;BME280;19112;51.076;3.706;2023-03-23T01:01:33;100072.31;;;14.59;72.80
32735;BME280;19112;51.076;3.706;2023-03-23T01:04:00;99872.03;;;13.44;72.98
32735;BME280;19112;51.076;3.706;2023-03-23T01:06:36;100060.88;;;14.62;72.76
32735;BME280;19112;51.076;3.706;2023-03-23T01:09:11;99990.25;;;14.20;72.69
32735;BME280;19112;51.076;3.706;2023-03-23T01:11:44;99943.53;;;13.96;72.88
32735;BME280;19112;51.076;3.706;2023-03-23T01:14:12;99970.88;;;14.13;73.19
32735;BME280;19112;51.076;3.706;2023-03-23T01:16:38;100090.84;;;14.68;73.63
32735;BME280;19112;51.076;3.706;2023-03-23T01:19:04;100077.66;;;14.75;73.66
32735;BME280;19112;51.076;3.706;2023-03-23T01:21:30;99977.91;;;14.12;73.70
32735;BME280;19112;51.076;3.706;2023-03-23T01:23:56;99820.16;;;13.38;73.51
32735;BME280;19112;51.076;3.706;2023-03-23T01:26:25;100075.06;;;14.85;73.62
32735;BME280;19112;51.076;3.706;2023-03-23T01:28:52;100072.38;;;14.75;73.39
32735;BME280;19112;51.076;3.706;2023-03-23T01:31:21;100016.81;;;14.50;73.33
32735;BME280;19112;51.076;3.706;2023-03-23T01:33:48;100004.44;;;14.45;73.18
32735;BME280;19112;51.076;3.706;2023-03-23T01:36:24;100002.69;;;14.47;73.25
32735;BME280;19112;51.076;3.706;2023-03-23T01:38:52;100072.44;;;14.88;73.13
32735;BME280;19112;51.076;3.706;2023-03-23T01:41:19;100079.44;;;14.76;73.46
32735;BME280;19112;51.076;3.706;2023-03-23T01:44:02;100080.34;;;14.84;73.30
32735;BME280;19112;51.076;3.706;2023-03-23T01:46:35;99899.44;;;13.72;73.20
32735;BME280;19112;51.076;3.706;2023-03-23T01:49:08;99832.41;;;13.30;73.09
32735;BME280;19112;51.076;3.706;2023-03-23T01:51:41;99927.66;;;13.89;73.13
32735;BME280;19112;51.076;3.706;2023-03-23T01:54:13;100032.69;;;14.56;73.04
32735;BME280;19112;51.076;3.706;2023-03-23T01:56:45;100091.81;;;14.81;72.90
32735;BME280;19112;51.076;3.706;2023-03-23T01:59:13;99900.25;;;13.60;73.03
32735;BME280;19112;51.076;3.706;2023-03-23T02:01:41;100045.88;;;14.52;73.25
32735;BME280;19112;51.076;3.706;2023-03-23T02:04:13;100017.59;;;14.34;73.10
32735;BME280;19112;51.076;3.706;2023-03-23T02:06:40;99811.19;;;13.11;72.98
32735;BME280;19112;51.076;3.706;2023-03-23T02:09:07;99990.28;;;14.26;72.72
32735;BME280;19112;51.076;3.706;2023-03-23T02:11:33;99925.97;;;14.02;72.19
32735;BME280;19112;51.076;3.706;2023-03-23T02:13:59;99857.19;;;13.59;72.21
32735;BME280;19112;51.076;3.706;2023-03-23T02:16:32;100083.00;;;14.87;72.37
32735;BME280;19112;51.076;3.706;2023-03-23T02:23:08;100098.91;;;14.98;71.76
32735;BME280;19112;51.076;3.706;2023-03-23T02:26:08;100015.97;;;14.63;71.12
32735;BME280;19112;51.076;3.706;2023-03-23T02:28:44;100078.59;;;14.97;71.22
32735;BME280;19112;51.076;3.706;2023-03-23T02:34:00;100000.97;;;14.53;70.98
32735;BME280;19112;51.076;3.706;2023-03-23T02:39:43;100048.63;;;14.85;70.80
32735;BME280;19112;51.076;3.706;2023-03-23T02:42:17;99854.56;;;13.69;70.57
32735;BME280;19112;51.076;3.706;2023-03-23T02:44:45;99973.63;;;14.45;70.43
32735;BME280;19112;51.076;3.706;2023-03-23T02:47:20;100004.56;;;14.74;70.19
32735;BME280;19112;51.076;3.706;2023-03-23T02:49:50;100065.44;;;15.04;70.05
32735;BME280;19112;51.076;3.706;2023-03-23T02:52:25;99996.56;;;14.52;70.18
32735;BME280;19112;51.076;3.706;2023-03-23T02:54:53;99937.44;;;14.21;70.11
32735;BME280;19112;51.076;3.706;2023-03-23T02:57:22;99966.56;;;14.35;70.01
32735;BME280;19112;51.076;3.706;2023-03-23T02:59:50;99767.28;;;13.14;69.88
32735;BME280;19112;51.076;3.706;2023-03-23T03:02:32;99484.72;;;11.61;69.69
32735;BME280;19112;51.076;3.706;2023-03-23T03:10:37;100070.69;;;14.95;71.02
32735;BME280;19112;51.076;3.706;2023-03-23T03:13:30;100065.41;;;14.93;71.42
32735;BME280;19112;51.076;3.706;2023-03-23T03:16:07;100055.69;;;14.85;71.33
32735;BME280;19112;51.076;3.706;2023-03-23T03:18:47;100025.66;;;14.58;71.75
32735;BME280;19112;51.076;3.706;2023-03-23T03:21:17;100048.56;;;14.62;71.86
32735;BME280;19112;51.076;3.706;2023-03-23T03:23:47;99912.78;;;14.02;71.67
32735;BME280;19112;51.076;3.706;2023-03-23T03:26:15;99969.16;;;14.26;71.88
32735;BME280;19112;51.076;3.706;2023-03-23T03:28:45;100055.59;;;14.56;73.27
32735;BME280;19112;51.076;3.706;2023-03-23T03:31:15;100016.72;;;14.36;74.49
32735;BME280;19112;51.076;3.706;2023-03-23T03:33:43;99961.16;;;14.04;74.56
32735;BME280;19112;51.076;3.706;2023-03-23T03:36:15;100067.09;;;14.65;75.24
32735;BME280;19112;51.076;3.706;2023-03-23T03:38:49;99980.56;;;14.15;75.16
32735;BME280;19112;51.076;3.706;2023-03-23T03:41:18;100010.50;;;14.27;75.24
32735;BME280;19112;51.076;3.706;2023-03-23T03:43:44;99939.94;;;13.84;75.30
32735;BME280;19112;51.076;3.706;2023-03-23T03:46:10;100070.56;;;14.57;74.87
32735;BME280;19112;51.076;3.706;2023-03-23T03:48:35;100054.56;;;14.35;74.43
32735;BME280;19112;51.076;3.706;2023-03-23T03:51:01;99831.44;;;13.16;74.10
32735;BME280;19112;51.076;3.706;2023-03-23T03:53:28;100024.59;;;14.24;74.08
32735;BME280;19112;51.076;3.706;2023-03-23T03:55:54;99863.19;;;13.35;73.42
32735;BME280;19112;51.076;3.706;2023-03-23T03:58:26;99748.63;;;12.77;73.32
32735;BME280;19112;51.076;3.706;2023-03-23T04:00:59;100059.03;;;14.44;73.43
32735;BME280;19112;51.076;3.706;2023-03-23T04:03:26;100015.84;;;14.33;72.96
32735;BME280;19112;51.076;3.706;2023-03-23T04:05:54;100002.59;;;14.24;72.95
32735;BME280;19112;51.076;3.706;2023-03-23T04:08:22;100109.41;;;14.76;72.54
32735;BME280;19112;51.076;3.706;2023-03-23T04:10:48;99944.38;;;13.92;72.17
32735;BME280;19112;51.076;3.706;2023-03-23T04:13:15;99926.78;;;13.86;72.27
32735;BME280;19112;51.076;3.706;2023-03-23T04:15:41;99969.03;;;13.98;72.39
32735;BME280;19112;51.076;3.706;2023-03-23T04:18:07;100082.94;;;14.72;72.15
32735;BME280;19112;51.076;3.706;2023-03-23T04:20:34;99797.03;;;12.99;71.90
32735;BME280;19112;51.076;3.706;2023-03-23T04:23:00;100090.88;;;14.73;72.02
32735;BME280;19112;51.076;3.706;2023-03-23T04:25:27;100069.72;;;14.65;71.72
32735;BME280;19112;51.076;3.706;2023-03-23T04:27:53;100021.16;;;14.39;71.43
32735;BME280;19112;51.076;3.706;2023-03-23T04:30:24;100048.53;;;14.50;71.35
32735;BME280;19112;51.076;3.706;2023-03-23T04:32:51;100091.75;;;14.75;71.56
32735;BME280;19112;51.076;3.706;2023-03-23T04:35:19;99920.34;;;13.41;71.29
32735;BME280;19112;51.076;3.706;2023-03-23T04:37:46;100035.25;;;14.39;71.22
32735;BME280;19112;51.076;3.706;2023-03-23T04:40:13;100023.75;;;14.30;71.56
32735;BME280;19112;51.076;3.706;2023-03-23T04:42:43;99949.63;;;13.88;72.11
32735;BME280;19112;51.076;3.706;2023-03-23T04:45:16;100015.81;;;14.28;72.16
32735;BME280;19112;51.076;3.706;2023-03-23T04:47:48;100098.81;;;14.70;72.30
32735;BME280;19112;51.076;3.706;2023-03-23T04:50:21;99981.38;;;14.02;72.17
32735;BME280;19112;51.076;3.706;2023-03-23T04:52:50;100098.81;;;14.70;72.16
32735;BME280;19112;51.076;3.706;2023-03-23T04:55:18;100106.75;;;14.78;71.76
32735;BME280;19112;51.076;3.706;2023-03-23T04:57:46;100071.41;;;14.51;71.48
32735;BME280;19112;51.076;3.706;2023-03-23T05:00:12;100084.69;;;14.68;71.53
32735;BME280;19112;51.076;3.706;2023-03-23T05:02:40;100100.53;;;14.70;71.88
32735;BME280;19112;51.076;3.706;2023-03-23T05:05:14;100101.44;;;14.70;71.97
32735;BME280;19112;51.076;3.706;2023-03-23T05:07:41;100105.81;;;14.66;71.82
32735;BME280;19112;51.076;3.706;2023-03-23T05:10:10;100092.59;;;14.63;71.78
32735;BME280;19112;51.076;3.706;2023-03-23T05:12:37;100098.81;;;14.70;71.76
32735;BME280;19112;51.076;3.706;2023-03-23T05:15:04;99931.03;;;13.61;71.75
32735;BME280;19112;51.076;3.706;2023-03-23T05:17:30;100113.72;;;14.63;71.99
32735;BME280;19112;51.076;3.706;2023-03-23T05:19:58;100079.28;;;14.44;71.99
32735;BME280;19112;51.076;3.706;2023-03-23T05:22:27;100121.69;;;14.68;72.19
32735;BME280;19112;51.076;3.706;2023-03-23T05:24:53;100042.16;;;14.11;72.60
32735;BME280;19112;51.076;3.706;2023-03-23T05:27:19;100097.63;;;14.27;73.07
32735;BME280;19112;51.076;3.706;2023-03-23T05:29:46;100101.22;;;14.35;73.42
32735;BME280;19112;51.076;3.706;2023-03-23T05:32:15;99811.75;;;12.65;73.77
32735;BME280;19112;51.076;3.706;2023-03-23T05:34:42;100141.69;;;14.31;74.30
32735;BME280;19112;51.076;3.706;2023-03-23T05:37:09;100149.72;;;14.48;75.40
32735;BME280;19112;51.076;3.706;2023-03-23T05:39:36;99872.44;;;12.83;75.91
32735;BME280;19112;51.076;3.706;2023-03-23T05:42:03;100004.69;;;13.40;76.28
32735;BME280;19112;51.076;3.706;2023-03-23T05:44:29;99724.69;;;11.50;76.64
32735;BME280;19112;51.076;3.706;2023-03-23T05:46:56;99971.59;;;12.78;76.78
32735;BME280;19112;51.076;3.706;2023-03-23T05:49:22;100169.59;;;13.98;77.19
32735;BME280;19112;51.076;3.706;2023-03-23T05:51:48;100103.91;;;13.30;77.86
32735;BME280;19112;51.076;3.706;2023-03-23T05:54:15;99803.56;;;11.52;79.03
32735;BME280;19112;51.076;3.706;2023-03-23T05:56:42;100171.06;;;13.64;79.34
32735;BME280;19112;51.076;3.706;2023-03-23T05:59:08;100163.94;;;13.55;79.66
32735;BME280;19112;51.076;3.706;2023-03-23T06:01:36;99875.69;;;11.77;79.43
32735;BME280;19112;51.076;3.706;2023-03-23T06:04:03;99700.00;;;10.68;79.53
32735;BME280;19112;51.076;3.706;2023-03-23T06:06:30;100085.91;;;12.94;79.53
32735;BME280;19112;51.076;3.706;2023-03-23T06:08:57;100033.41;;;12.33;79.37
32735;BME280;19112;51.076;3.706;2023-03-23T06:11:24;99962.00;;;12.04;79.95
32735;BME280;19112;51.076;3.706;2023-03-23T06:13:52;100159.97;;;13.17;80.26
32735;BME280;19112;51.076;3.706;2023-03-23T06:16:18;99885.84;;;11.48;80.33
32735;BME280;19112;51.076;3.706;2023-03-23T06:18:45;99712.75;;;10.43;79.83
32735;BME280;19112;51.076;3.706;2023-03-23T06:21:12;99530.03;;;9.29;79.85
32735;BME280;19112;51.076;3.706;2023-03-23T06:23:38;100189.72;;;13.06;80.63
32735;BME280;19112;51.076;3.706;2023-03-23T06:26:07;100171.97;;;12.92;80.44
32735;BME280;19112;51.076;3.706;2023-03-23T06:28:34;100159.44;;;12.74;80.60
32735;BME280;19112;51.076;3.706;2023-03-23T06:31:05;100143.66;;;12.77;80.73
32735;BME280;19112;51.076;3.706;2023-03-23T06:33:36;100120.66;;;12.62;80.54
32735;BME280;19112;51.076;3.706;2023-03-23T06:36:04;99899.53;;;11.25;80.39
32735;BME280;19112;51.076;3.706;2023-03-23T06:38:31;100038.03;;;11.87;80.27
32735;BME280;19112;51.076;3.706;2023-03-23T06:40:57;100042.69;;;12.05;80.36
32735;BME280;19112;51.076;3.706;2023-03-23T06:43:24;100111.66;;;12.46;80.43
32735;BME280;19112;51.076;3.706;2023-03-23T06:45:50;100059.53;;;12.19;80.21
32735;BME280;19112;51.076;3.706;2023-03-23T06:48:17;100174.59;;;12.90;79.91
32735;BME280;19112;51.076;3.706;2023-03-23T06:50:44;100051.63;;;12.16;79.70
32735;BME280;19112;51.076;3.706;2023-03-23T06:53:11;100009.28;;;11.99;79.86
32735;BME280;19112;51.076;3.706;2023-03-23T06:55:37;100150.75;;;12.79;79.60
32735;BME280;19112;51.076;3.706;2023-03-23T06:58:05;100204.78;;;13.18;79.46
32735;BME280;19112;51.076;3.706;2023-03-23T07:00:33;100209.16;;;13.16;78.69
32735;BME280;19112;51.076;3.706;2023-03-23T07:02:59;100209.19;;;13.21;78.81
32735;BME280;19112;51.076;3.706;2023-03-23T07:05:24;100216.31;;;13.25;78.38
32735;BME280;19112;51.076;3.706;2023-03-23T07:07:51;100149.00;;;12.80;77.94
32735;BME280;19112;51.076;3.706;2023-03-23T07:10:17;100209.19;;;13.21;77.78
32735;BME280;19112;51.076;3.706;2023-03-23T07:12:43;99967.00;;;11.83;77.66
32735;BME280;19112;51.076;3.706;2023-03-23T07:15:10;100195.22;;;13.23;77.60
32735;BME280;19112;51.076;3.706;2023-03-23T07:17:39;100142.94;;;12.89;77.83
32735;BME280;19112;51.076;3.706;2023-03-23T07:20:07;99874.25;;;11.34;77.43
32735;BME280;19112;51.076;3.706;2023-03-23T07:22:33;100152.56;;;12.85;77.62
32735;BME280;19112;51.076;3.706;2023-03-23T07:24:59;100227.03;;;13.39;77.66
32735;BME280;19112;51.076;3.706;2023-03-23T07:27:25;100117.41;;;12.83;77.41
32735;BME280;19112;51.076;3.706;2023-03-23T07:29:51;100151.13;;;13.11;77.50
32735;BME280;19112;51.076;3.706;2023-03-23T07:32:16;100090.22;;;12.84;77.32
32735;BME280;19112;51.076;3.706;2023-03-23T07:34:43;100167.19;;;13.31;77.35
32735;BME280;19112;51.076;3.706;2023-03-23T07:37:09;100209.63;;;13.54;77.63
32735;BME280;19112;51.076;3.706;2023-03-23T07:39:35;100179.69;;;13.51;77.27
32735;BME280;19112;51.076;3.706;2023-03-23T07:42:01;100092.22;;;13.06;77.39
32735;BME280;19112;51.076;3.706;2023-03-23T07:44:27;100226.69;;;13.90;77.25
32735;BME280;19112;51.076;3.706;2023-03-23T07:46:53;100247.00;;;13.97;76.95
32735;BME280;19112;51.076;3.706;2023-03-23T07:49:19;100176.31;;;13.62;76.49
32735;BME280;19112;51.076;3.706;2023-03-23T07:51:45;100194.09;;;13.83;76.49
32735;BME280;19112;51.076;3.706;2023-03-23T07:54:12;100073.88;;;13.16;76.33
32735;BME280;19112;51.076;3.706;2023-03-23T07:56:38;100194.03;;;13.79;75.86
32735;BME280;19112;51.076;3.706;2023-03-23T07:59:07;100185.28;;;13.83;75.77
32735;BME280;19112;51.076;3.706;2023-03-23T08:01:33;100199.47;;;13.91;75.39
32735;BME280;19112;51.076;3.706;2023-03-23T08:03:59;99976.69;;;12.59;75.14
32735;BME280;19112;51.076;3.706;2023-03-23T08:06:26;100269.19;;;14.18;75.29
32735;BME280;19112;51.076;3.706;2023-03-23T08:08:53;100255.72;;;13.88;74.87
32735;BME280;19112;51.076;3.706;2023-03-23T08:11:19;100247.78;;;13.88;75.36
32735;BME280;19112;51.076;3.706;2023-03-23T08:13:46;100064.66;;;12.77;75.39
32735;BME280;19112;51.076;3.706;2023-03-23T08:16:12;100071.66;;;12.75;75.84
32735;BME280;19112;51.076;3.706;2023-03-23T08:18:39;100169.03;;;13.37;76.18
32735;BME280;19112;51.076;3.706;2023-03-23T08:21:07;100264.22;;;13.61;75.91
32735;BME280;19112;51.076;3.706;2023-03-23T08:23:36;100057.44;;;12.61;75.53
32735;BME280;19112;51.076;3.706;2023-03-23T08:26:07;99997.56;;;12.44;75.79
32735;BME280;19112;51.076;3.706;2023-03-23T08:28:37;100270.00;;;14.10;75.99
32735;BME280;19112;51.076;3.706;2023-03-23T08:31:11;100110.00;;;13.21;75.34
32735;BME280;19112;51.076;3.706;2023-03-23T08:33:38;100120.56;;;13.26;74.94
32735;BME280;19112;51.076;3.706;2023-03-23T08:36:05;100212.66;;;13.93;74.99
32735;BME280;19112;51.076;3.706;2023-03-23T08:38:32;100195.94;;;13.91;75.27
32735;BME280;19112;51.076;3.706;2023-03-23T08:41:02;100197.88;;;14.11;75.14
32735;BME280;19112;51.076;3.706;2023-03-23T08:43:31;100245.06;;;14.81;74.46
32735;BME280;19112;51.076;3.706;2023-03-23T08:45:58;99951.97;;;13.41;72.61
32735;BME280;19112;51.076;3.706;2023-03-23T08:48:24;100018.22;;;13.90;71.49
32735;BME280;19112;51.076;3.706;2023-03-23T08:50:50;99930.03;;;13.45;70.75
32735;BME280;19112;51.076;3.706;2023-03-23T08:53:18;100285.06;;;15.47;71.14
32735;BME280;19112;51.076;3.706;2023-03-23T08:55:49;99958.31;;;13.68;70.06
32735;BME280;19112;51.076;3.706;2023-03-23T08:58:16;100272.75;;;15.58;69.66
32735;BME280;19112;51.076;3.706;2023-03-23T09:00:43;100219.75;;;15.37;69.93
32735;BME280;19112;51.076;3.706;2023-03-23T09:03:09;100008.75;;;14.18;69.76
32735;BME280;19112;51.076;3.706;2023-03-23T09:05:35;100316.06;;;15.74;69.15
32735;BME280;19112;51.076;3.706;2023-03-23T09:08:02;100291.31;;;15.63;69.16
32735;BME280;19112;51.076;3.706;2023-03-23T09:10:29;100293.09;;;15.70;69.60
32735;BME280;19112;51.076;3.706;2023-03-23T09:12:58;100295.81;;;15.90;69.11
32735;BME280;19112;51.076;3.706;2023-03-23T09:15:25;100217.22;;;15.63;69.12
32735;BME280;19112;51.076;3.706;2023-03-23T09:17:53;100289.69;;;16.21;69.03
32735;BME280;19112;51.076;3.706;2023-03-23T09:20:23;100081.34;;;15.18;68.02
32735;BME280;19112;51.076;3.706;2023-03-23T09:22:53;99999.28;;;14.86;67.83
32735;BME280;19112;51.076;3.706;2023-03-23T09:25:22;100015.22;;;15.19;67.27
32735;BME280;19112;51.076;3.706;2023-03-23T09:27:55;100093.72;;;15.62;66.51
32735;BME280;19112;51.076;3.706;2023-03-23T09:30:27;100256.16;;;16.43;66.67
32735;BME280;19112;51.076;3.706;2023-03-23T09:32:54;100147.56;;;15.79;66.53
32735;BME280;19112;51.076;3.706;2023-03-23T09:35:21;100136.97;;;15.85;66.38
32735;BME280;19112;51.076;3.706;2023-03-23T09:37:49;100153.75;;;16.01;66.51
32735;BME280;19112;51.076;3.706;2023-03-23T09:40:39;100224.34;;;16.42;66.67
32735;BME280;19112;51.076;3.706;2023-03-23T09:46:58;100308.25;;;17.02;65.88
32735;BME280;19112;51.076;3.706;2023-03-23T09:52:18;100175.75;;;16.50;65.03
32735;BME280;19112;51.076;3.706;2023-03-23T09:54:54;100221.66;;;16.82;64.71
32735;BME280;19112;51.076;3.706;2023-03-23T09:57:30;100282.59;;;17.09;64.87
32735;BME280;19112;51.076;3.706;2023-03-23T10:05:44;100254.38;;;16.77;63.21
32735;BME280;19112;51.076;3.706;2023-03-23T10:10:58;100288.66;;;17.49;62.92
32735;BME280;19112;51.076;3.706;2023-03-23T10:16:29;100175.66;;;16.93;62.68
32735;BME280;19112;51.076;3.706;2023-03-23T10:19:10;100294.69;;;17.87;62.52
32735;BME280;19112;51.076;3.706;2023-03-23T10:21:42;100307.94;;;17.96;62.21
32735;BME280;19112;51.076;3.706;2023-03-23T10:24:16;100266.38;;;17.84;61.84
32735;BME280;19112;51.076;3.706;2023-03-23T10:29:55;100210.88;;;17.34;61.26
32735;BME280;19112;51.076;3.706;2023-03-23T10:35:35;100151.78;;;16.98;61.28
32735;BME280;19112;51.076;3.706;2023-03-23T10:38:13;100260.25;;;17.62;61.75
32735;BME280;19112;51.076;3.706;2023-03-23T10:40:59;100185.28;;;17.20;62.16
32735;BME280;19112;51.076;3.706;2023-03-23T10:43:26;100239.97;;;17.58;61.63
32735;BME280;19112;51.076;3.706;2023-03-23T10:46:11;100299.03;;;18.03;61.46
32735;BME280;19112;51.076;3.706;2023-03-23T10:48:40;100146.50;;;16.93;61.62
32735;BME280;19112;51.076;3.706;2023-03-23T10:51:11;100251.53;;;17.39;62.01
32735;BME280;19112;51.076;3.706;2023-03-23T10:53:49;100067.19;;;16.23;65.46
32735;BME280;19112;51.076;3.706;2023-03-23T10:56:29;100305.59;;;17.10;66.74
32735;BME280;19112;51.076;3.706;2023-03-23T10:59:10;100246.41;;;16.61;67.82
32735;BME280;19112;51.076;3.706;2023-03-23T11:01:36;100145.81;;;15.83;69.27
32735;BME280;19112;51.076;3.706;2023-03-23T11:04:03;100251.75;;;16.47;70.71
32735;BME280;19112;51.076;3.706;2023-03-23T11:06:36;100044.31;;;15.24;71.64
32735;BME280;19112;51.076;3.706;2023-03-23T11:09:39;100261.44;;;16.68;71.76
32735;BME280;19112;51.076;3.706;2023-03-23T11:12:18;100298.56;;;16.80;72.16
32735;BME280;19112;51.076;3.706;2023-03-23T11:14:44;100166.09;;;15.97;72.98
32735;BME280;19112;51.076;3.706;2023-03-23T11:17:26;100257.00;;;16.56;73.54
32735;BME280;19112;51.076;3.706;2023-03-23T11:19:53;100212.88;;;16.52;74.06
32735;BME280;19112;51.076;3.706;2023-03-23T11:22:29;99809.00;;;14.32;72.27
32735;BME280;19112;51.076;3.706;2023-03-23T11:25:01;100279.91;;;17.20;72.58
32735;BME280;19112;51.076;3.706;2023-03-23T11:27:29;99962.31;;;15.52;72.21
32735;BME280;19112;51.076;3.706;2023-03-23T11:30:00;100020.47;;;15.97;70.70
32735;BME280;19112;51.076;3.706;2023-03-23T11:32:29;100254.19;;;17.42;69.98
32735;BME280;19112;51.076;3.706;2023-03-23T11:34:59;100091.84;;;16.49;68.96
32735;BME280;19112;51.076;3.706;2023-03-23T11:38:02;100290.31;;;17.79;69.18
32735;BME280;19112;51.076;3.706;2023-03-23T11:40:32;100168.63;;;16.88;69.95
32735;BME280;19112;51.076;3.706;2023-03-23T11:43:13;100204.91;;;16.73;70.54
32735;BME280;19112;51.076;3.706;2023-03-23T11:49:09;100304.69;;;17.11;73.27
32735;BME280;19112;51.076;3.706;2023-03-23T11:51:50;100302.84;;;17.35;74.36
32735;BME280;19112;51.076;3.706;2023-03-23T11:54:33;99997.59;;;15.74;74.33
32735;BME280;19112;51.076;3.706;2023-03-23T11:57:00;100285.97;;;17.59;74.26
32735;BME280;19112;51.076;3.706;2023-03-23T11:59:33;100196.88;;;16.99;72.26
32735;BME280;19112;51.076;3.706;2023-03-23T12:05:32;100274.41;;;17.63;71.78
32735;BME280;19112;51.076;3.706;2023-03-23T12:17:19;100253.28;;;17.41;71.11
32735;BME280;19112;51.076;3.706;2023-03-23T12:40:24;100286.97;;;17.28;66.96
32735;BME280;19112;51.076;3.706;2023-03-23T12:48:15;100262.13;;;17.45;66.73
32735;BME280;19112;51.076;3.706;2023-03-23T12:57:15;100297.31;;;17.93;61.49
32735;BME280;19112;51.076;3.706;2023-03-23T12:59:48;100244.38;;;17.56;63.16
32735;BME280;19112;51.076;3.706;2023-03-23T13:02:23;100308.78;;;18.02;61.91
32735;BME280;19112;51.076;3.706;2023-03-23T13:05:28;100237.22;;;17.70;62.24
32735;BME280;19112;51.076;3.706;2023-03-23T13:08:16;100231.84;;;17.87;62.08
32735;BME280;19112;51.076;3.706;2023-03-23T13:10:48;100247.75;;;17.92;60.03
32735;BME280;19112;51.076;3.706;2023-03-23T13:13:24;100287.34;;;18.28;61.52
32735;BME280;19112;51.076;3.706;2023-03-23T13:16:43;100187.41;;;18.09;61.29
32735;BME280;19112;51.076;3.706;2023-03-23T13:22:36;100107.16;;;18.61;59.74
32735;BME280;19112;51.076;3.706;2023-03-23T13:25:13;100265.75;;;19.48;57.69
32735;BME280;19112;51.076;3.706;2023-03-23T13:27:39;100156.41;;;18.96;56.46
32735;BME280;19112;51.076;3.706;2023-03-23T13:30:20;100234.81;;;19.38;56.36
32735;BME280;19112;51.076;3.706;2023-03-23T13:32:47;100282.56;;;19.55;55.47
32735;BME280;19112;51.076;3.706;2023-03-23T13:35:16;100282.47;;;19.64;56.52
32735;BME280;19112;51.076;3.706;2023-03-23T13:37:48;100236.25;;;19.68;56.28
32735;BME280;19112;51.076;3.706;2023-03-23T13:40:29;100141.44;;;19.55;55.39
32735;BME280;19112;51.076;3.706;2023-03-23T13:43:00;99885.34;;;18.19;55.41
32735;BME280;19112;51.076;3.706;2023-03-23T13:50:59;100051.84;;;18.91;53.51
32735;BME280;19112;51.076;3.706;2023-03-23T13:53:47;100186.69;;;19.56;54.53
32735;BME280;19112;51.076;3.706;2023-03-23T13:56:20;100242.38;;;19.73;54.28
32735;BME280;19112;51.076;3.706;2023-03-23T13:58:50;99862.38;;;17.38;53.18
32735;BME280;19112;51.076;3.706;2023-03-23T14:01:30;100030.63;;;18.14;55.86
32735;BME280;19112;51.076;3.706;2023-03-23T14:03:59;100209.34;;;19.20;56.47
32735;BME280;19112;51.076;3.706;2023-03-23T14:06:34;100025.25;;;18.18;56.57
32735;BME280;19112;51.076;3.706;2023-03-23T14:09:39;100102.88;;;18.48;57.77
32735;BME280;19112;51.076;3.706;2023-03-23T14:12:27;100181.25;;;18.96;57.62
32735;BME280;19112;51.076;3.706;2023-03-23T14:15:02;99985.81;;;17.82;58.53
32735;BME280;19112;51.076;3.706;2023-03-23T14:17:35;100149.56;;;18.76;58.53
32735;BME280;19112;51.076;3.706;2023-03-23T14:20:06;100176.03;;;18.89;58.93
32735;BME280;19112;51.076;3.706;2023-03-23T14:22:36;100131.03;;;18.70;57.95
32735;BME280;19112;51.076;3.706;2023-03-23T14:25:18;100189.13;;;19.05;58.29
32735;BME280;19112;51.076;3.706;2023-03-23T14:27:46;100151.25;;;18.83;58.07
32735;BME280;19112;51.076;3.706;2023-03-23T14:30:23;100183.72;;;19.11;57.60
32735;BME280;19112;51.076;3.706;2023-03-23T14:32:52;100222.75;;;19.11;58.49
32735;BME280;19112;51.076;3.706;2023-03-23T14:35:33;100147.81;;;18.74;58.59
32735;BME280;19112;51.076;3.706;2023-03-23T14:38:00;100114.88;;;18.84;58.60
32735;BME280;19112;51.076;3.706;2023-03-23T14:40:28;100177.44;;;19.17;59.37
32735;BME280;19112;51.076;3.706;2023-03-23T14:42:55;100057.97;;;18.23;59.08
32735;BME280;19112;51.076;3.706;2023-03-23T14:45:24;100033.38;;;18.04;59.81
32735;BME280;19112;51.076;3.706;2023-03-23T14:48:14;100086.03;;;18.47;59.81